createdAt,value
2023-03-23T15:59:19.510Z,99915.75
2023-03-23T16:01:51.886Z,99894.56
2023-03-23T16:04:26.633Z,99891.03
2023-03-23T16:07:01.662Z,99895.03
2023-03-23T16:09:33.255Z,99886.34
2023-03-23T16:12:05.194Z,99881.00
2023-03-23T16:14:37.120Z,99875.06
2023-03-23T16:17:11.777Z,99874.94
2023-03-23T16:19:43.324Z,99871.50
2023-03-23T16:22:17.412Z,99867.59
2023-03-23T16:24:50.442Z,99872.88
2023-03-23T16:27:23.619Z,99870.75
2023-03-23T16:30:03.966Z,99862.44
2023-03-23T16:35:07.246Z,99859.50
2023-03-23T16:37:45.103Z,99867.16
2023-03-23T16:40:18.837Z,99857.19
2023-03-23T16:42:50.579Z,99866.44
2023-03-23T16:45:24.396Z,99870.69
2023-03-23T16:48:01.394Z,99866.91
2023-03-23T16:50:33.837Z,99881.53
2023-03-23T16:53:08.140Z,99872.66
2023-03-23T16:55:42.056Z,99865.44
2023-03-23T16:58:17.494Z,99861.72
2023-03-23T17:00:54.036Z,99868.94
2023-03-23T17:03:26.516Z,99872.66
2023-03-23T17:06:00.341Z,99858.78
2023-03-23T17:08:33.714Z,99864.31
2023-03-23T17:11:05.824Z,99866.53
2023-03-23T17:13:37.787Z,99878.47
2023-03-23T17:16:11.492Z,99884.69
2023-03-23T17:18:43.339Z,99886.72
2023-03-23T17:21:15.303Z,99888.94
2023-03-23T17:23:48.232Z,99890.78
2023-03-23T17:26:20.223Z,99892.81
2023-03-23T17:28:52.093Z,99893.19
2023-03-23T17:31:24.113Z,99889.66
2023-03-23T17:33:57.446Z,99897.06
2023-03-23T17:36:30.234Z,99890.41
2023-03-23T17:39:04.045Z,99901.13
2023-03-23T17:41:35.996Z,99904.81
2023-03-23T17:44:07.832Z,99906.88
2023-03-23T17:46:40.255Z,99900.88
2023-03-23T17:49:12.075Z,99903.94
2023-03-23T17:51:44.620Z,99911.97
2023-03-23T17:54:17.918Z,99901.06
2023-03-23T17:56:50.046Z,99897.06
2023-03-23T17:59:23.313Z,99906.31
2023-03-23T18:01:55.223Z,99912.69
2023-03-23T18:04:27.881Z,99905.69
2023-03-23T18:07:00.651Z,99905.84
2023-03-23T18:09:33.849Z,99896.81
2023-03-23T18:12:05.934Z,99910.75
2023-03-23T18:14:39.808Z,99919.63
2023-03-23T18:17:11.623Z,99919.31
2023-03-23T18:19:44.954Z,99931.44
2023-03-23T18:22:16.837Z,99935.59
2023-03-23T18:24:50.546Z,99939.28
2023-03-23T18:27:22.185Z,99937.81
2023-03-23T18:29:53.999Z,99939.47
2023-03-23T18:32:26.501Z,99934.94
2023-03-23T18:34:58.190Z,99936.34
2023-03-23T18:37:29.979Z,99932.81
2023-03-23T18:40:05.306Z,99940.19
2023-03-23T18:42:36.952Z,99949.25
2023-03-23T18:45:10.402Z,99943.91
2023-03-23T18:47:43.404Z,99941.41
2023-03-23T18:50:15.907Z,99937.88
2023-03-23T18:52:47.861Z,99942.59
2023-03-23T18:55:22.105Z,99935.56
2023-03-23T18:57:53.961Z,99930.22
2023-03-23T19:00:25.638Z,99928.38
2023-03-23T19:02:57.904Z,99940.94
2023-03-23T19:05:30.412Z,99926.53
2023-03-23T19:08:03.624Z,99926.53
2023-03-23T19:10:40.642Z,99920.34
2023-03-23T19:13:13.175Z,99921.19
2023-03-23T19:15:45.077Z,99914.16
2023-03-23T19:18:16.823Z,99921.53
2023-03-23T19:21:12.482Z,99914.50
2023-03-23T19:23:42.732Z,99912.00
2023-03-23T19:26:23.519Z,99896.78
2023-03-23T19:29:24.349Z,99888.94
2023-03-23T19:31:48.521Z,99893.47
2023-03-23T19:34:21.807Z,99898.81
2023-03-23T19:37:03.201Z,99891.78
2023-03-23T19:39:37.807Z,99889.09
2023-03-23T19:42:11.185Z,99885.44
2023-03-23T19:44:44.111Z,99881.91
2023-03-23T19:47:16.492Z,99887.28
2023-03-23T19:49:48.436Z,99882.75
2023-03-23T19:52:20.846Z,99885.44
2023-03-23T19:54:53.238Z,99879.41
2023-03-23T19:57:26.832Z,99880.25
2023-03-23T19:59:59.194Z,99874.88
2023-03-23T20:02:32.151Z,99874.03
2023-03-23T20:05:04.496Z,99873.25
2023-03-23T20:07:40.497Z,99867.22
2023-03-23T20:10:13.288Z,99861.88
2023-03-23T20:12:46.562Z,99855.88
2023-03-23T20:15:18.276Z,99859.75
2023-03-23T20:17:50.255Z,99849.06
2023-03-23T20:20:23.442Z,99843.88
2023-03-23T20:22:57.907Z,99837.66
2023-03-23T20:25:30.093Z,99848.75
2023-03-23T20:28:03.330Z,99851.59
2023-03-23T20:30:35.754Z,99853.81
2023-03-23T20:33:07.695Z,99849.50
2023-03-23T20:35:39.344Z,99853.53
2023-03-23T20:38:13.732Z,99851.41
2023-03-23T20:40:46.869Z,99852.59
2023-03-23T20:43:20.179Z,99855.63
2023-03-23T20:45:53.400Z,99858.69
2023-03-23T20:48:25.217Z,99854.34
2023-03-23T20:51:00.479Z,99840.31
2023-03-23T20:53:34.414Z,99848.34
2023-03-23T20:56:09.593Z,99846.69
2023-03-23T20:58:42.861Z,99852.38
2023-03-23T21:01:15.268Z,99850.72
2023-03-23T21:03:50.969Z,99842.69
2023-03-23T21:06:28.106Z,99828.31
2023-03-23T21:09:00.862Z,99838.00
2023-03-23T21:11:45.254Z,99834.50
2023-03-23T21:14:18.368Z,99827.63
2023-03-23T21:16:50.255Z,99826.00
2023-03-23T21:19:21.975Z,99829.69
2023-03-23T21:21:56.786Z,99820.44
2023-03-23T21:24:32.201Z,99818.97
2023-03-23T21:27:06.185Z,99815.66
2023-03-23T21:29:39.628Z,99803.28
2023-03-23T21:32:11.319Z,99792.94
2023-03-23T21:34:46.524Z,99796.63
2023-03-23T21:37:18.095Z,99792.94
2023-03-23T21:39:49.895Z,99785.94
2023-03-23T21:42:21.976Z,99785.94
2023-03-23T21:44:56.518Z,99780.56
2023-03-23T21:47:30.676Z,99776.44
2023-03-23T21:50:04.126Z,99771.06
2023-03-23T21:52:37.212Z,99768.56
2023-03-23T21:55:10.387Z,99767.75
2023-03-23T21:57:42.444Z,99757.88
2023-03-23T22:00:18.768Z,99761.59
2023-03-23T22:02:51.530Z,99755.41
2023-03-23T22:05:23.337Z,99756.22
2023-03-23T22:07:55.697Z,99759.91
2023-03-23T22:10:27.585Z,99752.88
2023-03-23T22:12:59.489Z,99757.88
2023-03-23T22:15:32.570Z,99757.41
2023-03-23T22:18:04.378Z,99755.75
2023-03-23T22:20:38.054Z,99747.75
2023-03-23T22:23:10.946Z,99745.22
2023-03-23T22:25:43.346Z,99731.03
2023-03-23T22:28:15.345Z,99740.25
2023-03-23T22:30:48.584Z,99730.38
2023-03-23T22:33:20.326Z,99727.88
2023-03-23T22:35:52.310Z,99728.72
2023-03-23T22:38:24.241Z,99722.53
2023-03-23T22:41:06.835Z,99723.56
2023-03-23T22:43:40.281Z,99717.38
2023-03-23T22:46:13.870Z,99712.03
2023-03-23T22:48:46.769Z,99712.88
2023-03-23T22:51:22.246Z,99707.53
2023-03-23T22:53:55.532Z,99693.47
2023-03-23T22:56:28.506Z,99688.97
2023-03-23T22:59:01.934Z,99690.13
2023-03-23T23:01:36.456Z,99676.75
2023-03-23T23:04:09.015Z,99681.09
2023-03-23T23:06:40.918Z,99681.09
2023-03-23T23:09:12.781Z,99678.44
2023-03-23T23:11:44.513Z,99674.94
2023-03-23T23:14:16.628Z,99668.75
2023-03-23T23:16:49.949Z,99660.56
2023-03-23T23:19:21.886Z,99655.03
2023-03-23T23:21:55.000Z,99646.63
2023-03-23T23:24:28.137Z,99648.31
2023-03-23T23:27:00.077Z,99649.94
2023-03-23T23:29:32.771Z,99631.88
2023-03-23T23:32:06.523Z,99631.03
2023-03-23T23:34:39.062Z,99638.53
2023-03-23T23:37:10.705Z,99634.81
2023-03-23T23:39:42.651Z,99626.78
2023-03-23T23:42:16.155Z,99626.63
2023-03-23T23:44:48.205Z,99632.13
2023-03-23T23:47:21.426Z,99629.09
2023-03-23T23:50:04.726Z,99618.75
2023-03-23T23:52:38.949Z,99615.09
2023-03-23T23:55:13.147Z,99618.75
2023-03-23T23:57:45.772Z,99609.72
